Visit the IPS Meteostar Home Page 2IPSM Phoenix Sky Harbor International Airport FORECAST

Phoenix, Arizona

2 miles away at Phoenix Sky Harbor International Airport 0:51 GMT

Weather:

Thunder nearby

Wind:

NE 7 mph

Temperature:

95 ° F

Pressure:

29.71

Dew Point:

65 ° F

Relative Humidity:

36

Feels Like:

97 ° F

Visibility:

10 miles


Aviation Observations:

KPHX 230051Z COR 04006KT 10SM SCT080 SCT120 SCT150 BKN200 BKN270 35/18 A2976 RMK AO2 PKWND 36035/2355 WSHFT2353 LTG DSNT NW SLP054 CB DSNT SE-S AND W-NW SHRA DSNT E AND W-NW T03500183 =

National Weather Service Forecast:
Greater Phoenix Area


Visit the IPS Meteostar Home Page